createdAt,value
2022-09-15T00:00:19.935Z,13.77
2022-09-15T00:02:47.521Z,13.48
2022-09-15T00:05:15.311Z,13.53
2022-09-15T00:07:42.918Z,13.63
2022-09-15T00:10:13.069Z,13.45
2022-09-15T00:12:40.503Z,13.42
2022-09-15T00:15:08.690Z,13.10
2022-09-15T00:17:36.154Z,13.07
2022-09-15T00:20:06.343Z,13.11
2022-09-15T00:22:33.853Z,13.13
2022-09-15T00:25:01.303Z,13.21
2022-09-15T00:27:30.063Z,13.40
2022-09-15T00:29:57.498Z,13.48
2022-09-15T00:32:24.907Z,13.48
2022-09-15T00:34:53.449Z,13.48
2022-09-15T00:37:21.302Z,13.69
2022-09-15T00:39:48.971Z,13.79
2022-09-15T00:42:17.676Z,13.80
2022-09-15T00:44:53.741Z,13.99
2022-09-15T00:47:22.337Z,13.76
2022-09-15T00:49:58.216Z,13.81
2022-09-15T00:52:30.333Z,13.94
2022-09-15T00:55:00.838Z,14.05
2022-09-15T00:57:31.566Z,13.84
2022-09-15T01:00:02.713Z,14.04
2022-09-15T01:02:32.594Z,14.04
2022-09-15T01:05:01.774Z,13.84
2022-09-15T01:07:34.285Z,14.06
2022-09-15T01:10:06.106Z,13.87
2022-09-15T01:12:33.745Z,14.10
2022-09-15T01:15:02.783Z,13.81
2022-09-15T01:17:38.051Z,13.71
2022-09-15T01:20:39.385Z,13.50
2022-09-15T01:23:31.173Z,13.07
2022-09-15T01:26:22.641Z,13.12
2022-09-15T01:29:07.416Z,12.91
2022-09-15T01:31:59.910Z,12.94
2022-09-15T01:34:27.158Z,12.79
2022-09-15T01:36:57.573Z,12.81
2022-09-15T01:39:27.641Z,12.80
2022-09-15T01:41:56.861Z,12.86
2022-09-15T01:44:27.020Z,12.83
2022-09-15T01:46:59.221Z,12.72
2022-09-15T01:49:29.082Z,12.80
2022-09-15T01:51:56.527Z,12.90
2022-09-15T01:54:27.388Z,12.90
2022-09-15T01:56:54.838Z,12.91
2022-09-15T01:59:22.350Z,12.91
2022-09-15T02:01:53.569Z,12.83
2022-09-15T02:04:27.712Z,12.50
2022-09-15T02:06:58.621Z,12.37
2022-09-15T02:09:29.745Z,12.21
2022-09-15T02:12:05.767Z,12.39
2022-09-15T02:14:55.880Z,12.43
2022-09-15T02:17:24.752Z,12.38
2022-09-15T02:19:55.590Z,12.37
2022-09-15T02:22:26.988Z,12.51
2022-09-15T02:24:58.816Z,12.40
2022-09-15T02:27:28.135Z,12.41
2022-09-15T02:29:57.655Z,12.47
2022-09-15T02:32:27.413Z,12.33
2022-09-15T02:34:56.523Z,12.23
2022-09-15T02:37:24.945Z,12.25
2022-09-15T02:39:55.788Z,12.08
2022-09-15T02:42:25.073Z,11.95
2022-09-15T02:44:52.641Z,11.94
2022-09-15T02:47:20.166Z,11.81
2022-09-15T02:49:47.581Z,11.91
2022-09-15T02:52:16.411Z,11.90
2022-09-15T02:54:43.844Z,12.00
2022-09-15T02:57:11.294Z,11.90
2022-09-15T02:59:56.133Z,11.99
2022-09-15T03:02:24.789Z,11.73
2022-09-15T03:04:52.350Z,11.81
2022-09-15T03:07:21.551Z,11.92
2022-09-15T03:09:49.013Z,11.96
2022-09-15T03:12:16.545Z,12.04
2022-09-15T03:14:44.234Z,11.90
2022-09-15T03:17:11.649Z,11.84
2022-09-15T03:19:39.207Z,12.03
2022-09-15T03:22:07.068Z,12.18
2022-09-15T03:24:36.060Z,12.30
2022-09-15T03:27:03.885Z,12.49
2022-09-15T03:29:31.818Z,12.60
2022-09-15T03:31:59.295Z,12.65
2022-09-15T03:34:26.837Z,12.74
2022-09-15T03:36:54.324Z,12.64
2022-09-15T03:39:21.908Z,12.77
2022-09-15T03:41:50.705Z,12.85
2022-09-15T03:44:18.202Z,12.87
2022-09-15T03:46:45.817Z,13.04
2022-09-15T03:49:13.300Z,12.97
2022-09-15T03:51:41.849Z,13.09
2022-09-15T03:54:09.294Z,13.32
2022-09-15T03:56:36.820Z,13.48
2022-09-15T03:59:06.457Z,13.48
2022-09-15T04:01:34.144Z,13.52
2022-09-15T04:04:02.060Z,13.47
2022-09-15T04:06:29.571Z,13.51
2022-09-15T04:08:57.846Z,13.54
2022-09-15T04:11:25.293Z,13.44
2022-09-15T04:13:53.449Z,13.62
2022-09-15T04:16:24.073Z,13.63
2022-09-15T04:18:52.612Z,13.36
2022-09-15T04:21:22.742Z,13.53
2022-09-15T04:23:51.608Z,13.38
2022-09-15T04:26:23.053Z,13.48
2022-09-15T04:28:50.548Z,13.57
2022-09-15T04:31:19.043Z,13.70
2022-09-15T04:33:48.045Z,13.70
2022-09-15T04:36:17.247Z,13.56
2022-09-15T04:38:44.899Z,13.56
2022-09-15T04:41:13.137Z,13.40
2022-09-15T04:43:41.093Z,13.29
2022-09-15T04:46:08.959Z,13.29
2022-09-15T04:48:37.675Z,13.51
2022-09-15T04:51:08.649Z,13.54
2022-09-15T04:53:36.974Z,13.64
2022-09-15T04:56:05.531Z,13.55
2022-09-15T04:58:36.933Z,13.63
2022-09-15T05:01:08.475Z,13.69
2022-09-15T05:03:36.509Z,13.59
2022-09-15T05:06:04.264Z,13.65
2022-09-15T05:08:33.089Z,13.41
2022-09-15T05:11:01.381Z,13.53
2022-09-15T05:13:28.889Z,13.60
2022-09-15T05:15:56.376Z,13.52
2022-09-15T05:18:23.820Z,13.61
2022-09-15T05:20:51.238Z,13.67
2022-09-15T05:23:19.166Z,13.71
2022-09-15T05:25:56.441Z,13.83
2022-09-15T05:28:24.568Z,13.71
2022-09-15T05:30:52.921Z,13.78
2022-09-15T05:33:20.865Z,13.74
2022-09-15T05:35:52.043Z,13.87
2022-09-15T05:38:19.601Z,13.92
2022-09-15T05:40:47.259Z,13.77
2022-09-15T05:43:16.664Z,13.90
2022-09-15T05:45:44.329Z,14.06
2022-09-15T05:48:12.372Z,14.15
2022-09-15T05:50:40.015Z,14.21
2022-09-15T05:53:08.090Z,14.08
2022-09-15T05:55:38.118Z,14.10
2022-09-15T05:58:05.603Z,14.11
2022-09-15T06:00:34.434Z,14.25
2022-09-15T06:03:01.922Z,14.32
2022-09-15T06:05:29.896Z,14.42
2022-09-15T06:07:57.573Z,14.40
2022-09-15T06:10:25.143Z,14.38
2022-09-15T06:12:54.073Z,14.39
2022-09-15T06:15:21.631Z,14.41
2022-09-15T06:17:50.748Z,14.51
2022-09-15T06:20:19.020Z,14.44
2022-09-15T06:22:46.788Z,14.51
2022-09-15T06:25:14.485Z,14.37
2022-09-15T06:27:41.997Z,14.50
2022-09-15T06:30:10.804Z,14.38
2022-09-15T06:32:38.268Z,14.48
2022-09-15T06:35:07.701Z,14.47
2022-09-15T06:37:35.494Z,14.54
2022-09-15T06:40:04.259Z,14.57
2022-09-15T06:42:32.169Z,14.56
2022-09-15T06:44:59.618Z,14.48
2022-09-15T06:47:33.591Z,14.49
2022-09-15T06:50:01.157Z,14.48
2022-09-15T06:52:29.989Z,14.47
2022-09-15T06:54:57.477Z,14.52
2022-09-15T06:57:24.916Z,14.47
2022-09-15T06:59:52.401Z,14.59
2022-09-15T07:02:19.980Z,14.68
2022-09-15T07:04:47.564Z,14.67
2022-09-15T07:07:15.021Z,14.70
2022-09-15T07:09:48.357Z,14.84
2022-09-15T07:12:16.394Z,14.85
2022-09-15T07:14:43.829Z,14.80
2022-09-15T07:17:11.429Z,14.83
2022-09-15T07:19:40.101Z,14.92
2022-09-15T07:22:07.530Z,14.94
2022-09-15T07:24:34.957Z,15.00
2022-09-15T07:27:03.905Z,15.07
2022-09-15T07:29:33.833Z,15.08
2022-09-15T07:32:05.724Z,15.27
2022-09-15T07:34:33.314Z,15.42
2022-09-15T07:37:00.768Z,15.57
2022-09-15T07:39:28.931Z,15.60
2022-09-15T07:41:56.373Z,15.51
2022-09-15T07:44:25.412Z,15.58
2022-09-15T07:46:52.816Z,15.73
2022-09-15T07:49:20.245Z,15.97
2022-09-15T07:51:47.694Z,15.94
2022-09-15T07:54:18.284Z,15.93
2022-09-15T07:56:49.096Z,16.11
2022-09-15T07:59:16.503Z,16.19
2022-09-15T08:01:45.576Z,16.15
2022-09-15T08:04:13.235Z,16.02
2022-09-15T08:06:40.672Z,16.14
2022-09-15T08:09:08.400Z,16.10
2022-09-15T08:11:35.850Z,16.12
2022-09-15T08:14:03.697Z,16.18
2022-09-15T08:16:31.213Z,16.20
2022-09-15T08:19:00.309Z,16.38
2022-09-15T08:21:28.992Z,16.49
2022-09-15T08:23:58.405Z,16.47
2022-09-15T08:26:27.714Z,16.44
2022-09-15T08:28:55.285Z,16.57
2022-09-15T08:31:24.408Z,16.53
2022-09-15T08:33:53.775Z,16.64
2022-09-15T08:36:23.009Z,16.81
2022-09-15T08:38:50.429Z,16.69
2022-09-15T08:41:21.442Z,16.72
2022-09-15T08:43:52.543Z,16.93
2022-09-15T08:46:24.491Z,17.02
2022-09-15T08:48:56.929Z,17.13
2022-09-15T08:51:33.225Z,17.21
2022-09-15T08:54:04.677Z,17.43
2022-09-15T08:56:32.163Z,17.60
2022-09-15T08:59:00.949Z,17.67
2022-09-15T09:01:40.783Z,17.50
2022-09-15T09:04:21.034Z,17.70
2022-09-15T09:06:56.345Z,17.70
2022-09-15T09:09:33.045Z,17.81
2022-09-15T09:12:13.818Z,17.91
2022-09-15T09:14:49.812Z,18.09
2022-09-15T09:17:29.977Z,18.17
2022-09-15T09:20:04.750Z,18.35
2022-09-15T09:22:37.187Z,18.06
2022-09-15T09:25:21.448Z,18.04
2022-09-15T09:27:53.965Z,17.92
2022-09-15T09:30:23.382Z,17.66
2022-09-15T09:32:55.549Z,17.59
2022-09-15T09:35:29.433Z,17.58
2022-09-15T09:37:59.886Z,17.96
2022-09-15T09:40:28.107Z,18.33
2022-09-15T09:42:55.807Z,18.27
2022-09-15T09:45:23.809Z,18.60
2022-09-15T09:47:51.276Z,18.50
2022-09-15T09:50:35.953Z,18.76
2022-09-15T09:53:28.513Z,18.33
2022-09-15T09:56:12.922Z,18.30
2022-09-15T09:58:40.365Z,18.54
2022-09-15T10:01:11.010Z,18.41
2022-09-15T10:03:38.641Z,18.07
2022-09-15T10:06:08.250Z,18.19
2022-09-15T10:08:37.830Z,18.57
2022-09-15T10:11:06.663Z,18.60
2022-09-15T10:13:35.324Z,18.51
2022-09-15T10:16:04.753Z,18.37
2022-09-15T10:18:34.374Z,18.45
2022-09-15T10:21:02.871Z,18.55
2022-09-15T10:23:31.933Z,18.32
2022-09-15T10:26:22.111Z,18.43
2022-09-15T10:29:12.783Z,18.48
2022-09-15T10:31:40.909Z,18.56
2022-09-15T10:34:30.310Z,18.73
2022-09-15T10:37:07.195Z,18.74
2022-09-15T10:39:43.185Z,18.46
2022-09-15T10:42:17.963Z,18.50
2022-09-15T10:44:52.317Z,18.53
2022-09-15T10:47:27.049Z,18.68
2022-09-15T10:50:07.201Z,19.10
2022-09-15T10:52:43.936Z,19.09
2022-09-15T10:55:31.812Z,18.89
2022-09-15T10:58:19.186Z,19.27
2022-09-15T11:00:53.454Z,19.09
2022-09-15T11:03:51.056Z,19.28
2022-09-15T11:06:22.428Z,19.39
2022-09-15T11:09:02.618Z,19.19
2022-09-15T11:11:35.629Z,18.78
2022-09-15T11:14:19.641Z,18.50
2022-09-15T11:16:57.133Z,18.33
2022-09-15T11:19:39.545Z,18.42
2022-09-15T11:22:10.099Z,18.51
2022-09-15T11:24:43.201Z,18.65
2022-09-15T11:27:16.409Z,18.65
2022-09-15T11:30:01.111Z,18.66
2022-09-15T11:32:31.979Z,18.78
2022-09-15T11:35:20.041Z,18.86
2022-09-15T11:37:49.848Z,18.66
2022-09-15T11:40:22.159Z,18.75
2022-09-15T11:42:53.225Z,18.80
2022-09-15T11:45:25.924Z,18.93
2022-09-15T11:47:56.516Z,18.85
2022-09-15T11:50:28.506Z,19.32
2022-09-15T11:52:58.336Z,19.92
2022-09-15T11:55:29.438Z,20.19
2022-09-15T11:58:02.997Z,20.23
2022-09-15T12:00:32.247Z,20.39
2022-09-15T12:03:09.831Z,20.83
2022-09-15T12:05:42.429Z,21.20
2022-09-15T12:08:15.657Z,21.24
2022-09-15T12:10:44.996Z,21.44
2022-09-15T12:13:17.034Z,20.65
2022-09-15T12:15:47.578Z,20.36
2022-09-15T12:18:37.680Z,20.58
2022-09-15T12:21:12.767Z,21.03
2022-09-15T12:23:42.820Z,21.52
2022-09-15T12:26:17.382Z,21.21
2022-09-15T12:28:58.847Z,21.50
2022-09-15T12:31:33.461Z,21.69
2022-09-15T12:34:03.446Z,21.26
2022-09-15T12:36:42.433Z,20.45
2022-09-15T12:39:29.364Z,20.74
2022-09-15T12:42:06.609Z,21.48
2022-09-15T12:44:36.654Z,20.72
2022-09-15T12:47:07.183Z,20.30
2022-09-15T12:49:36.834Z,20.52
2022-09-15T12:52:07.255Z,20.56
2022-09-15T12:54:36.889Z,20.61
2022-09-15T12:57:04.943Z,20.73
2022-09-15T12:59:32.523Z,20.20
2022-09-15T13:02:00.187Z,20.06
2022-09-15T13:04:57.502Z,20.07
2022-09-15T13:07:58.682Z,20.18
2022-09-15T13:10:31.686Z,20.33
2022-09-15T13:13:09.053Z,20.57
2022-09-15T13:15:37.323Z,20.29
2022-09-15T13:18:07.020Z,20.08
2022-09-15T13:20:37.788Z,20.05
2022-09-15T13:23:08.431Z,20.20
2022-09-15T13:25:37.158Z,20.77
2022-09-15T13:28:05.012Z,21.51
2022-09-15T13:30:40.688Z,21.27
2022-09-15T13:33:17.854Z,20.30
2022-09-15T13:36:01.506Z,20.61
2022-09-15T13:38:40.001Z,20.83
2022-09-15T13:41:19.045Z,20.57
2022-09-15T13:44:04.530Z,20.01
2022-09-15T13:46:40.498Z,19.61
2022-09-15T13:49:32.701Z,19.73
2022-09-15T13:52:03.991Z,19.67
2022-09-15T13:54:31.486Z,19.48
2022-09-15T13:57:00.452Z,19.15
2022-09-15T13:59:30.491Z,19.17
2022-09-15T14:01:58.723Z,19.05
2022-09-15T14:04:29.103Z,18.78
2022-09-15T14:07:00.771Z,18.66
2022-09-15T14:09:34.026Z,18.51
2022-09-15T14:12:04.213Z,18.61
2022-09-15T14:14:37.809Z,19.00
2022-09-15T14:17:05.569Z,19.11
2022-09-15T14:19:34.805Z,19.17
2022-09-15T14:22:03.115Z,19.29
2022-09-15T14:24:32.770Z,19.36
2022-09-15T14:27:03.261Z,19.23
2022-09-15T14:29:30.961Z,19.21
2022-09-15T14:32:01.218Z,19.09
2022-09-15T14:34:31.711Z,19.02
2022-09-15T14:37:02.622Z,19.25
2022-09-15T14:39:33.363Z,19.68
2022-09-15T14:42:09.563Z,19.65
2022-09-15T14:47:28.751Z,19.84
2022-09-15T14:50:07.166Z,19.80
2022-09-15T14:52:38.965Z,19.28
2022-09-15T14:55:13.596Z,20.11
2022-09-15T14:57:47.322Z,20.19
2022-09-15T15:00:19.716Z,19.63
2022-09-15T15:02:55.167Z,20.23
2022-09-15T15:05:26.179Z,21.01
2022-09-15T15:07:55.243Z,21.68
2022-09-15T15:10:26.178Z,21.51
2022-09-15T15:12:55.913Z,20.59
2022-09-15T15:15:23.585Z,20.04
2022-09-15T15:17:54.483Z,19.75
2022-09-15T15:20:24.097Z,19.87
2022-09-15T15:23:10.989Z,19.44
2022-09-15T15:25:41.694Z,19.08
2022-09-15T15:28:29.810Z,18.80
2022-09-15T15:31:08.279Z,18.87
2022-09-15T15:33:35.922Z,18.71
2022-09-15T15:36:06.493Z,18.38
2022-09-15T15:38:35.499Z,18.20
2022-09-15T15:41:05.841Z,18.22
2022-09-15T15:43:34.241Z,18.27
2022-09-15T15:46:03.809Z,18.06
2022-09-15T15:48:36.857Z,18.09
2022-09-15T15:51:06.385Z,18.06
2022-09-15T15:53:34.170Z,18.23
2022-09-15T15:56:01.650Z,18.08
2022-09-15T15:58:31.124Z,18.28
2022-09-15T16:00:58.630Z,17.96
2022-09-15T16:03:26.264Z,17.98
2022-09-15T16:05:55.286Z,17.96
2022-09-15T16:08:25.587Z,17.80
2022-09-15T16:10:54.688Z,17.81
2022-09-15T16:13:23.575Z,17.54
2022-09-15T16:15:53.650Z,17.70
2022-09-15T16:18:21.410Z,17.74
2022-09-15T16:20:48.886Z,17.70
2022-09-15T16:23:18.339Z,17.62
2022-09-15T16:25:49.658Z,17.30
2022-09-15T16:28:17.682Z,17.33
2022-09-15T16:30:45.784Z,17.38
2022-09-15T16:33:15.991Z,17.39
2022-09-15T16:35:49.321Z,17.08
2022-09-15T16:38:19.520Z,17.14
2022-09-15T16:40:47.135Z,17.19
2022-09-15T16:43:16.113Z,17.08
2022-09-15T16:45:44.390Z,16.93
2022-09-15T16:48:12.597Z,16.84
2022-09-15T16:50:50.346Z,16.78
2022-09-15T16:53:30.807Z,16.56
2022-09-15T16:55:58.562Z,16.61
2022-09-15T16:58:26.285Z,16.51
2022-09-15T17:00:53.774Z,16.48
2022-09-15T17:03:23.699Z,16.44
2022-09-15T17:05:53.597Z,16.33
2022-09-15T17:08:25.689Z,16.38
2022-09-15T17:10:53.766Z,16.41
2022-09-15T17:13:26.447Z,16.34
2022-09-15T17:15:57.265Z,16.21
2022-09-15T17:18:25.008Z,16.18
2022-09-15T17:20:53.897Z,16.19
2022-09-15T17:23:24.078Z,16.19
2022-09-15T17:25:53.001Z,16.10
2022-09-15T17:28:25.479Z,15.91
2022-09-15T17:30:56.783Z,15.90
2022-09-15T17:33:27.380Z,16.02
2022-09-15T17:35:56.352Z,16.07
2022-09-15T17:38:25.046Z,15.81
2022-09-15T17:40:55.060Z,15.73
2022-09-15T17:43:25.158Z,15.74
2022-09-15T17:45:53.149Z,15.71
2022-09-15T17:48:20.827Z,15.58
2022-09-15T17:50:48.837Z,15.69
2022-09-15T17:53:21.104Z,15.60
2022-09-15T17:55:48.866Z,15.44
2022-09-15T17:58:16.617Z,15.53
2022-09-15T18:00:45.236Z,15.51
2022-09-15T18:03:21.133Z,15.61
2022-09-15T18:05:48.865Z,15.35
2022-09-15T18:08:18.121Z,15.20
2022-09-15T18:10:45.717Z,15.22
2022-09-15T18:13:14.854Z,15.25
2022-09-15T18:15:42.846Z,15.27
2022-09-15T18:18:14.433Z,15.28
2022-09-15T18:20:42.245Z,15.16
2022-09-15T18:23:13.062Z,15.18
2022-09-15T18:25:42.289Z,15.07
2022-09-15T18:28:09.910Z,15.07
2022-09-15T18:30:40.494Z,15.04
2022-09-15T18:33:08.741Z,15.07
2022-09-15T18:35:36.232Z,15.01
2022-09-15T18:38:03.758Z,15.04
2022-09-15T18:40:31.288Z,14.94
2022-09-15T18:43:00.330Z,14.91
2022-09-15T18:45:27.827Z,14.88
2022-09-15T18:47:55.444Z,14.95
2022-09-15T18:50:27.473Z,14.91
2022-09-15T18:52:54.954Z,14.85
2022-09-15T18:55:23.780Z,14.84
2022-09-15T18:57:51.429Z,14.82
2022-09-15T19:00:21.848Z,14.80
2022-09-15T19:02:49.570Z,14.90
2022-09-15T19:05:17.526Z,14.86
2022-09-15T19:07:45.763Z,14.83
2022-09-15T19:10:16.054Z,14.86
2022-09-15T19:12:43.625Z,14.77
2022-09-15T19:15:12.574Z,14.89
2022-09-15T19:17:42.171Z,14.84
2022-09-15T19:20:14.879Z,14.84
2022-09-15T19:22:42.823Z,14.88
2022-09-15T19:25:11.896Z,14.79
2022-09-15T19:27:40.131Z,14.97
2022-09-15T19:30:09.838Z,14.94
2022-09-15T19:32:38.129Z,14.96
2022-09-15T19:35:11.181Z,14.87
2022-09-15T19:37:39.899Z,14.80
2022-09-15T19:40:10.320Z,14.83
2022-09-15T19:42:38.412Z,14.83
2022-09-15T19:45:07.008Z,14.97
2022-09-15T19:47:34.677Z,14.99
2022-09-15T19:50:02.330Z,14.75
2022-09-15T19:52:31.170Z,14.64
2022-09-15T19:54:58.673Z,14.68
2022-09-15T19:57:26.876Z,14.73
2022-09-15T19:59:54.365Z,14.68
2022-09-15T20:02:23.581Z,14.58
2022-09-15T20:04:51.321Z,14.58
2022-09-15T20:07:18.891Z,14.32
2022-09-15T20:09:48.485Z,14.16
2022-09-15T20:12:15.962Z,14.19
2022-09-15T20:14:43.474Z,13.87
2022-09-15T20:17:11.016Z,13.80
2022-09-15T20:19:38.689Z,13.91
2022-09-15T20:22:06.147Z,13.81
2022-09-15T20:24:33.636Z,13.80
2022-09-15T20:27:02.472Z,13.85
2022-09-15T20:29:30.191Z,13.85
2022-09-15T20:31:57.733Z,13.89
2022-09-15T20:34:25.179Z,13.90
2022-09-15T20:36:52.603Z,13.79
2022-09-15T20:39:22.058Z,13.90
2022-09-15T20:41:49.754Z,13.72
2022-09-15T20:44:18.694Z,13.68
2022-09-15T20:46:46.181Z,13.54
2022-09-15T20:49:16.963Z,13.56
2022-09-15T20:51:45.081Z,13.54
2022-09-15T20:54:12.592Z,13.28
2022-09-15T20:56:40.097Z,13.32
2022-09-15T20:59:10.207Z,13.23
2022-09-15T21:01:39.714Z,13.23
2022-09-15T21:04:08.769Z,13.06
2022-09-15T21:06:36.369Z,13.12
2022-09-15T21:09:04.699Z,13.09
2022-09-15T21:11:32.235Z,13.08
2022-09-15T21:13:59.808Z,13.07
2022-09-15T21:16:28.756Z,13.01
2022-09-15T21:18:58.663Z,13.11
2022-09-15T21:21:27.886Z,13.08
2022-09-15T21:23:58.512Z,12.97
2022-09-15T21:26:27.775Z,12.97
2022-09-15T21:28:56.364Z,13.07
2022-09-15T21:31:26.080Z,13.09
2022-09-15T21:33:55.233Z,13.09
2022-09-15T21:36:25.665Z,13.09
2022-09-15T21:38:54.489Z,13.11
2022-09-15T21:41:25.401Z,13.07
2022-09-15T21:43:55.160Z,13.06
2022-09-15T21:46:24.365Z,13.10
2022-09-15T21:48:51.998Z,12.99
2022-09-15T21:51:25.202Z,12.88
2022-09-15T21:53:54.961Z,12.83
2022-09-15T21:56:23.465Z,12.72
2022-09-15T21:58:51.137Z,12.78
2022-09-15T22:01:20.071Z,12.60
2022-09-15T22:03:50.598Z,12.58
2022-09-15T22:06:19.293Z,12.56
2022-09-15T22:08:47.261Z,12.58
2022-09-15T22:11:16.260Z,12.61
2022-09-15T22:13:44.799Z,12.58
2022-09-15T22:16:14.229Z,12.53
2022-09-15T22:18:42.465Z,12.45
2022-09-15T22:21:11.898Z,12.40
2022-09-15T22:23:40.238Z,12.50
2022-09-15T22:26:10.189Z,12.45
2022-09-15T22:28:39.478Z,12.45
2022-09-15T22:31:10.009Z,12.58
2022-09-15T22:33:40.870Z,12.63
2022-09-15T22:36:09.950Z,12.77
2022-09-15T22:38:37.568Z,12.72
2022-09-15T22:41:05.980Z,12.81
2022-09-15T22:43:33.902Z,12.89
2022-09-15T22:46:03.065Z,12.69
2022-09-15T22:48:30.737Z,12.39
2022-09-15T22:50:58.445Z,12.47
2022-09-15T22:53:26.264Z,12.59
2022-09-15T22:56:04.000Z,12.54
2022-09-15T22:58:31.528Z,12.60
2022-09-15T23:01:05.264Z,12.60
2022-09-15T23:03:32.850Z,12.82
2022-09-15T23:06:01.062Z,12.89
2022-09-15T23:08:29.111Z,12.89
2022-09-15T23:11:02.575Z,12.91
2022-09-15T23:13:30.161Z,13.00
2022-09-15T23:15:57.658Z,13.06
2022-09-15T23:18:27.183Z,12.89
2022-09-15T23:20:59.533Z,12.99
2022-09-15T23:23:28.074Z,12.74
2022-09-15T23:25:56.007Z,12.83
2022-09-15T23:28:26.994Z,12.85
2022-09-15T23:30:55.213Z,12.76
2022-09-15T23:33:24.170Z,12.77
2022-09-15T23:35:53.312Z,12.53
2022-09-15T23:38:21.240Z,12.72
2022-09-15T23:40:49.847Z,12.63
2022-09-15T23:43:17.748Z,12.64
2022-09-15T23:45:46.204Z,12.77
2022-09-15T23:48:14.247Z,12.72
2022-09-15T23:50:42.161Z,12.72
2022-09-15T23:53:10.986Z,12.52
2022-09-15T23:55:38.749Z,12.77
2022-09-15T23:58:06.335Z,12.78
